KLM467 GVAC-GCTS
Flight info
| Callsign | KLM467 |
|---|---|
| Flight time | 2h 1m |
| Altitude | 23000 |
| Route | DIMKI1A DIMKI B623 IPERA/N0432F390 N873 LIMAL T770 URQUI |
| Aircraft | E190/M-SDE3GILORVW/S |
Departure
| Time | 2026-04-20 16:33 |
|---|---|
| Airport | Amílcar Cabral International Airport (GVAC) |
Arrival
| Time | 2026-04-20 18:34 |
|---|---|
| Airport | Tenerife Sur Airport (GCTS) |
| Time | Latitude | Longitude | Altitude | Speed | Heading |
|---|---|---|---|---|---|
| 2026-04-20 16:23 | 16.73366 | -22.94494 | 180 ft | 0 kts | 89° |
| 2026-04-20 16:27 | 16.73366 | -22.94504 | 180 ft | 4 kts | 91° |
| 2026-04-20 16:27 | 16.73368 | -22.94532 | 180 ft | 4 kts | 101° |
| 2026-04-20 16:28 | 16.73375 | -22.94558 | 180 ft | 4 kts | 113° |
| 2026-04-20 16:28 | 16.73388 | -22.94582 | 180 ft | 4 kts | 134° |
| 2026-04-20 16:28 | 16.73408 | -22.94596 | 180 ft | 2 kts | 178° |
| 2026-04-20 16:28 | 16.73410 | -22.94596 | 180 ft | 0 kts | 179° |
| 2026-04-20 16:30 | 16.73409 | -22.94596 | 180 ft | 1 kts | 179° |
| 2026-04-20 16:30 | 16.73341 | -22.94595 | 180 ft | 17 kts | 179° |
| 2026-04-20 16:30 | 16.73176 | -22.94592 | 181 ft | 27 kts | 179° |
| 2026-04-20 16:31 | 16.73046 | -22.94665 | 181 ft | 21 kts | 227° |
| 2026-04-20 16:31 | 16.72907 | -22.94688 | 181 ft | 21 kts | 179° |
| 2026-04-20 16:31 | 16.72764 | -22.94688 | 181 ft | 20 kts | 180° |
| 2026-04-20 16:31 | 16.72626 | -22.94688 | 182 ft | 19 kts | 180° |
| 2026-04-20 16:32 | 16.72494 | -22.94688 | 182 ft | 19 kts | 180° |
| 2026-04-20 16:32 | 16.72407 | -22.94759 | 181 ft | 18 kts | 268° |
| 2026-04-20 16:32 | 16.72439 | -22.94875 | 181 ft | 18 kts | 331° |
| 2026-04-20 16:32 | 16.72714 | -22.94888 | 180 ft | 89 kts | 359° |
| 2026-04-20 16:33 | 16.73717 | -22.94895 | 225 ft | 187 kts | 359° |
| 2026-04-20 16:33 | 16.75005 | -22.94958 | 1453 ft | 180 kts | 358° |
| 2026-04-20 16:33 | 16.76245 | -22.94976 | 3106 ft | 176 kts | 358° |
| 2026-04-20 16:33 | 16.77524 | -22.94974 | 4084 ft | 202 kts | 356° |
| 2026-04-20 16:34 | 16.79084 | -22.94982 | 4487 ft | 247 kts | 356° |
| 2026-04-20 16:34 | 16.80935 | -22.94989 | 5134 ft | 275 kts | 356° |
| 2026-04-20 16:34 | 16.82856 | -22.94991 | 6417 ft | 277 kts | 355° |
| 2026-04-20 16:34 | 16.84807 | -22.95000 | 7533 ft | 284 kts | 355° |
| 2026-04-20 16:35 | 16.86813 | -22.95015 | 8625 ft | 292 kts | 355° |
| 2026-04-20 16:35 | 16.88873 | -22.95033 | 9700 ft | 301 kts | 355° |
| 2026-04-20 16:35 | 16.91001 | -22.95031 | 10586 ft | 317 kts | 360° |
| 2026-04-20 16:35 | 16.93190 | -22.94306 | 11281 ft | 344 kts | 28° |
| 2026-04-20 16:36 | 16.95226 | -22.92916 | 12257 ft | 353 kts | 32° |
| 2026-04-20 16:36 | 16.97257 | -22.91443 | 13314 ft | 358 kts | 33° |
| 2026-04-20 16:36 | 16.99312 | -22.89929 | 14274 ft | 365 kts | 33° |
| 2026-04-20 16:36 | 17.01376 | -22.88410 | 15214 ft | 369 kts | 32° |
| 2026-04-20 16:37 | 17.03487 | -22.86862 | 16229 ft | 372 kts | 32° |
| 2026-04-20 16:37 | 17.05618 | -22.85307 | 17210 ft | 376 kts | 32° |
| 2026-04-20 16:37 | 17.07781 | -22.83735 | 18187 ft | 380 kts | 31° |
| 2026-04-20 16:37 | 17.09935 | -22.82175 | 19000 ft | 384 kts | 31° |
| 2026-04-20 16:38 | 17.12150 | -22.80573 | 19799 ft | 390 kts | 31° |
| 2026-04-20 16:38 | 17.14399 | -22.78947 | 20609 ft | 395 kts | 30° |
| 2026-04-20 16:38 | 17.16674 | -22.77302 | 21402 ft | 399 kts | 30° |
| 2026-04-20 16:38 | 17.18969 | -22.75642 | 22177 ft | 404 kts | 30° |
| 2026-04-20 16:39 | 17.21298 | -22.73958 | 22951 ft | 409 kts | 30° |
| 2026-04-20 16:39 | 17.23650 | -22.72257 | 23662 ft | 414 kts | 29° |
| 2026-04-20 16:39 | 17.26036 | -22.70529 | 24294 ft | 418 kts | 29° |
| 2026-04-20 16:39 | 17.28433 | -22.68793 | 24975 ft | 420 kts | 28° |
| 2026-04-20 16:40 | 17.30841 | -22.67047 | 25635 ft | 422 kts | 27° |
| 2026-04-20 16:40 | 17.33259 | -22.65294 | 26265 ft | 425 kts | 27° |
| 2026-04-20 16:40 | 17.35704 | -22.63523 | 26861 ft | 428 kts | 26° |
| 2026-04-20 16:40 | 17.38156 | -22.61745 | 27446 ft | 431 kts | 26° |
| 2026-04-20 16:41 | 17.40629 | -22.59952 | 28018 ft | 434 kts | 25° |
| 2026-04-20 16:41 | 17.43118 | -22.58146 | 28606 ft | 437 kts | 25° |
| 2026-04-20 16:41 | 17.45487 | -22.56426 | 29143 ft | 439 kts | 24° |
| 2026-04-20 16:41 | 17.47058 | -22.55285 | 29487 ft | 440 kts | 24° |
| 2026-04-20 16:42 | 17.49582 | -22.53453 | 29998 ft | 443 kts | 24° |
| 2026-04-20 16:42 | 17.52099 | -22.51625 | 30395 ft | 447 kts | 24° |
| 2026-04-20 16:42 | 17.54661 | -22.49764 | 30753 ft | 451 kts | 24° |
| 2026-04-20 16:42 | 17.57249 | -22.47884 | 31114 ft | 455 kts | 24° |
| 2026-04-20 16:43 | 17.59863 | -22.45982 | 31473 ft | 459 kts | 24° |
| 2026-04-20 16:43 | 17.62490 | -22.44071 | 31845 ft | 462 kts | 24° |
| 2026-04-20 16:43 | 17.65146 | -22.42137 | 32185 ft | 466 kts | 24° |
| 2026-04-20 16:43 | 17.67795 | -22.40207 | 32529 ft | 469 kts | 24° |
| 2026-04-20 16:44 | 17.69641 | -22.38862 | 32765 ft | 472 kts | 24° |
| 2026-04-20 16:44 | 17.72351 | -22.36886 | 33161 ft | 473 kts | 24° |
| 2026-04-20 16:44 | 17.75056 | -22.34910 | 33642 ft | 473 kts | 24° |
| 2026-04-20 16:44 | 17.77749 | -22.32943 | 34133 ft | 472 kts | 24° |
| 2026-04-20 16:45 | 17.80440 | -22.30976 | 34603 ft | 471 kts | 24° |
| 2026-04-20 16:45 | 17.83139 | -22.29007 | 35038 ft | 470 kts | 24° |
| 2026-04-20 16:45 | 17.85824 | -22.27048 | 35455 ft | 470 kts | 24° |
| 2026-04-20 16:45 | 17.88504 | -22.25092 | 35866 ft | 470 kts | 23° |
| 2026-04-20 16:46 | 17.91225 | -22.23223 | 36291 ft | 464 kts | 20° |
| 2026-04-20 16:46 | 17.93950 | -22.21509 | 36722 ft | 461 kts | 19° |
| 2026-04-20 16:46 | 17.96729 | -22.19831 | 37139 ft | 459 kts | 18° |
| 2026-04-20 16:46 | 17.99541 | -22.18154 | 37547 ft | 459 kts | 18° |
| 2026-04-20 16:47 | 18.02277 | -22.16516 | 37963 ft | 459 kts | 18° |
| 2026-04-20 16:47 | 18.05016 | -22.14863 | 38352 ft | 459 kts | 18° |
| 2026-04-20 16:47 | 18.07780 | -22.13182 | 38714 ft | 459 kts | 18° |
| 2026-04-20 16:47 | 18.10543 | -22.11490 | 38939 ft | 461 kts | 18° |
| 2026-04-20 16:48 | 18.16113 | -22.08063 | 38938 ft | 463 kts | 18° |
| 2026-04-20 16:48 | 18.21612 | -22.04655 | 38924 ft | 455 kts | 18° |
| 2026-04-20 16:49 | 18.27078 | -22.01280 | 38932 ft | 456 kts | 18° |
| 2026-04-20 16:49 | 18.32557 | -21.97899 | 38943 ft | 457 kts | 18° |
| 2026-04-20 16:50 | 18.38044 | -21.94508 | 38940 ft | 458 kts | 18° |
| 2026-04-20 16:50 | 18.43539 | -21.91109 | 38936 ft | 459 kts | 18° |
| 2026-04-20 16:51 | 18.49047 | -21.87697 | 38950 ft | 459 kts | 18° |
| 2026-04-20 16:51 | 18.54556 | -21.84282 | 38938 ft | 459 kts | 18° |
| 2026-04-20 16:52 | 18.60057 | -21.80869 | 38934 ft | 458 kts | 18° |
| 2026-04-20 16:52 | 18.64618 | -21.78036 | 38936 ft | 457 kts | 18° |
| 2026-04-20 16:53 | 18.70976 | -21.74087 | 38932 ft | 455 kts | 18° |
| 2026-04-20 16:53 | 18.76427 | -21.70698 | 38932 ft | 454 kts | 18° |
| 2026-04-20 16:54 | 18.80981 | -21.67865 | 38934 ft | 453 kts | 17° |
| 2026-04-20 16:54 | 18.86410 | -21.64487 | 38941 ft | 452 kts | 17° |
| 2026-04-20 16:55 | 18.91828 | -21.61112 | 38934 ft | 452 kts | 17° |
| 2026-04-20 16:55 | 18.97199 | -21.57763 | 38934 ft | 451 kts | 17° |
| 2026-04-20 16:56 | 19.02574 | -21.54410 | 38934 ft | 451 kts | 17° |
| 2026-04-20 16:56 | 19.07971 | -21.51041 | 38935 ft | 451 kts | 17° |
| 2026-04-20 16:57 | 19.13380 | -21.47662 | 38932 ft | 451 kts | 17° |
| 2026-04-20 16:57 | 19.18782 | -21.44284 | 38946 ft | 452 kts | 17° |
| 2026-04-20 16:58 | 19.24196 | -21.40896 | 38938 ft | 452 kts | 17° |
| 2026-04-20 16:58 | 19.29612 | -21.37504 | 38928 ft | 452 kts | 17° |
| 2026-04-20 16:59 | 19.34983 | -21.34137 | 38932 ft | 451 kts | 17° |
| 2026-04-20 16:59 | 19.40389 | -21.30745 | 38931 ft | 451 kts | 17° |
| 2026-04-20 17:00 | 19.48491 | -21.25658 | 38935 ft | 451 kts | 17° |
| 2026-04-20 17:01 | 19.53887 | -21.22267 | 38941 ft | 451 kts | 16° |
| 2026-04-20 17:01 | 19.59283 | -21.18874 | 38934 ft | 451 kts | 17° |
| 2026-04-20 17:02 | 19.64683 | -21.15475 | 38933 ft | 451 kts | 17° |
| 2026-04-20 17:02 | 19.70090 | -21.12068 | 38939 ft | 452 kts | 16° |
| 2026-04-20 17:03 | 19.75496 | -21.08660 | 38930 ft | 452 kts | 16° |
| 2026-04-20 17:03 | 19.80903 | -21.05248 | 38928 ft | 452 kts | 16° |
| 2026-04-20 17:04 | 19.86282 | -21.01850 | 38950 ft | 453 kts | 16° |
| 2026-04-20 17:04 | 19.91556 | -20.98518 | 38933 ft | 453 kts | 16° |
| 2026-04-20 17:05 | 19.96972 | -20.95091 | 38930 ft | 453 kts | 16° |
| 2026-04-20 17:05 | 20.02362 | -20.91679 | 38928 ft | 453 kts | 16° |
| 2026-04-20 17:06 | 20.07769 | -20.88253 | 38926 ft | 452 kts | 16° |
| 2026-04-20 17:06 | 20.13173 | -20.84826 | 38931 ft | 452 kts | 16° |
| 2026-04-20 17:07 | 20.18566 | -20.81404 | 38932 ft | 452 kts | 16° |
| 2026-04-20 17:07 | 20.23968 | -20.77973 | 38937 ft | 452 kts | 16° |
| 2026-04-20 17:08 | 20.29358 | -20.74546 | 38936 ft | 451 kts | 16° |
| 2026-04-20 17:08 | 20.34757 | -20.71111 | 38933 ft | 451 kts | 16° |
| 2026-04-20 17:09 | 20.40102 | -20.67706 | 38930 ft | 450 kts | 16° |
| 2026-04-20 17:09 | 20.45481 | -20.64271 | 38928 ft | 450 kts | 16° |
| 2026-04-20 17:10 | 20.50853 | -20.60836 | 38934 ft | 450 kts | 16° |
| 2026-04-20 17:10 | 20.56223 | -20.57401 | 38925 ft | 450 kts | 16° |
| 2026-04-20 17:11 | 20.61592 | -20.53963 | 38929 ft | 450 kts | 16° |
| 2026-04-20 17:11 | 20.66957 | -20.50523 | 38928 ft | 449 kts | 16° |
| 2026-04-20 17:12 | 20.72319 | -20.47084 | 38946 ft | 449 kts | 15° |
| 2026-04-20 17:12 | 20.77633 | -20.43674 | 38934 ft | 448 kts | 15° |
| 2026-04-20 17:13 | 20.82983 | -20.40236 | 38925 ft | 448 kts | 15° |
| 2026-04-20 17:13 | 20.88327 | -20.36800 | 38962 ft | 448 kts | 15° |
| 2026-04-20 17:14 | 20.93681 | -20.33356 | 38933 ft | 449 kts | 15° |
| 2026-04-20 17:14 | 20.99025 | -20.29913 | 38925 ft | 449 kts | 15° |
| 2026-04-20 17:15 | 21.04349 | -20.26480 | 38928 ft | 448 kts | 15° |
| 2026-04-20 17:15 | 21.09694 | -20.23031 | 38929 ft | 448 kts | 15° |
| 2026-04-20 17:16 | 21.15031 | -20.19585 | 38929 ft | 448 kts | 15° |
| 2026-04-20 17:16 | 21.20370 | -20.16135 | 38929 ft | 448 kts | 15° |
| 2026-04-20 17:17 | 21.25713 | -20.12680 | 38942 ft | 449 kts | 15° |
| 2026-04-20 17:17 | 21.31059 | -20.09218 | 38930 ft | 449 kts | 15° |
| 2026-04-20 17:18 | 21.36398 | -20.05757 | 38918 ft | 448 kts | 15° |
| 2026-04-20 17:18 | 21.41735 | -20.02295 | 38925 ft | 447 kts | 15° |
| 2026-04-20 17:19 | 21.46905 | -19.98939 | 38930 ft | 447 kts | 15° |
| 2026-04-20 17:19 | 21.52221 | -19.95487 | 38928 ft | 446 kts | 15° |
| 2026-04-20 17:20 | 21.57531 | -19.92035 | 38946 ft | 447 kts | 15° |
| 2026-04-20 17:20 | 21.62860 | -19.88568 | 38932 ft | 447 kts | 15° |
| 2026-04-20 17:21 | 21.68176 | -19.85105 | 38923 ft | 446 kts | 15° |
| 2026-04-20 17:21 | 21.73479 | -19.81647 | 38926 ft | 446 kts | 15° |
| 2026-04-20 17:22 | 21.78749 | -19.78208 | 38938 ft | 446 kts | 15° |
| 2026-04-20 17:22 | 21.84093 | -19.74719 | 38928 ft | 446 kts | 15° |
| 2026-04-20 17:23 | 21.89390 | -19.71257 | 38960 ft | 446 kts | 16° |
| 2026-04-20 17:23 | 21.94698 | -19.67784 | 38934 ft | 446 kts | 16° |
| 2026-04-20 17:24 | 22.00003 | -19.64310 | 38926 ft | 446 kts | 16° |
| 2026-04-20 17:24 | 22.05250 | -19.60871 | 38927 ft | 446 kts | 16° |
| 2026-04-20 17:25 | 22.10547 | -19.57397 | 38925 ft | 446 kts | 16° |
| 2026-04-20 17:25 | 22.15847 | -19.53921 | 38925 ft | 445 kts | 16° |
| 2026-04-20 17:26 | 22.21139 | -19.50447 | 38923 ft | 445 kts | 16° |
| 2026-04-20 17:26 | 22.26444 | -19.46963 | 38934 ft | 447 kts | 17° |
| 2026-04-20 17:27 | 22.31752 | -19.43470 | 38930 ft | 447 kts | 18° |
| 2026-04-20 17:27 | 22.37073 | -19.39965 | 38926 ft | 448 kts | 18° |
| 2026-04-20 17:28 | 22.42394 | -19.36457 | 38926 ft | 448 kts | 18° |
| 2026-04-20 17:28 | 22.47713 | -19.32947 | 38927 ft | 448 kts | 18° |
| 2026-04-20 17:29 | 22.53038 | -19.29431 | 38927 ft | 448 kts | 18° |
| 2026-04-20 17:29 | 22.58325 | -19.25937 | 38944 ft | 449 kts | 19° |
| 2026-04-20 17:30 | 22.63663 | -19.22406 | 38922 ft | 450 kts | 19° |
| 2026-04-20 17:30 | 22.69007 | -19.18868 | 38929 ft | 450 kts | 19° |
| 2026-04-20 17:31 | 22.74349 | -19.15326 | 38929 ft | 450 kts | 19° |
| 2026-04-20 17:31 | 22.79697 | -19.11778 | 38932 ft | 450 kts | 20° |
| 2026-04-20 17:32 | 22.85046 | -19.08226 | 38919 ft | 451 kts | 20° |
| 2026-04-20 17:32 | 22.90401 | -19.04668 | 38943 ft | 451 kts | 21° |
| 2026-04-20 17:33 | 22.95759 | -19.01105 | 38927 ft | 452 kts | 21° |
| 2026-04-20 17:33 | 23.00951 | -18.97647 | 38921 ft | 452 kts | 21° |
| 2026-04-20 17:34 | 23.06313 | -18.94072 | 38921 ft | 452 kts | 21° |
| 2026-04-20 17:34 | 23.11681 | -18.90491 | 38918 ft | 453 kts | 21° |
| 2026-04-20 17:35 | 23.17046 | -18.86908 | 38920 ft | 453 kts | 21° |
| 2026-04-20 17:35 | 23.22414 | -18.83320 | 38945 ft | 453 kts | 21° |
| 2026-04-20 17:36 | 23.27794 | -18.79722 | 38924 ft | 453 kts | 21° |
| 2026-04-20 17:36 | 23.32256 | -18.76733 | 38918 ft | 453 kts | 21° |
| 2026-04-20 17:37 | 23.37619 | -18.73138 | 38918 ft | 453 kts | 21° |
| 2026-04-20 17:37 | 23.42992 | -18.69533 | 38917 ft | 453 kts | 21° |
| 2026-04-20 17:38 | 23.48352 | -18.65933 | 38917 ft | 453 kts | 21° |
| 2026-04-20 17:38 | 23.53717 | -18.62327 | 38915 ft | 452 kts | 21° |
| 2026-04-20 17:39 | 23.59079 | -18.58719 | 38915 ft | 452 kts | 21° |
| 2026-04-20 17:39 | 23.64430 | -18.55116 | 38915 ft | 452 kts | 21° |
| 2026-04-20 17:40 | 23.69782 | -18.51508 | 38918 ft | 452 kts | 21° |
| 2026-04-20 17:40 | 23.75135 | -18.47896 | 38918 ft | 452 kts | 21° |
| 2026-04-20 17:41 | 23.80461 | -18.44298 | 38926 ft | 452 kts | 22° |
| 2026-04-20 17:41 | 23.85807 | -18.40685 | 38915 ft | 452 kts | 22° |
| 2026-04-20 17:42 | 23.91166 | -18.37058 | 38923 ft | 453 kts | 23° |
| 2026-04-20 17:42 | 23.96526 | -18.33427 | 38917 ft | 453 kts | 23° |
| 2026-04-20 17:43 | 24.01862 | -18.29808 | 38915 ft | 453 kts | 23° |
| 2026-04-20 17:43 | 24.07224 | -18.26168 | 38913 ft | 453 kts | 23° |
| 2026-04-20 17:44 | 24.12578 | -18.22530 | 38909 ft | 453 kts | 23° |
| 2026-04-20 17:44 | 24.17950 | -18.18876 | 38909 ft | 453 kts | 23° |
| 2026-04-20 17:45 | 24.23279 | -18.15247 | 38918 ft | 453 kts | 24° |
| 2026-04-20 17:45 | 24.28641 | -18.11593 | 38912 ft | 454 kts | 24° |
| 2026-04-20 17:46 | 24.33999 | -18.07938 | 38916 ft | 454 kts | 24° |
| 2026-04-20 17:46 | 24.39364 | -18.04275 | 38910 ft | 454 kts | 24° |
| 2026-04-20 17:47 | 24.44725 | -18.00610 | 38910 ft | 454 kts | 24° |
| 2026-04-20 17:47 | 24.49936 | -17.97044 | 38909 ft | 454 kts | 24° |
| 2026-04-20 17:48 | 24.55297 | -17.93372 | 38928 ft | 454 kts | 25° |
| 2026-04-20 17:48 | 24.60609 | -17.89730 | 38915 ft | 454 kts | 25° |
| 2026-04-20 17:49 | 24.65967 | -17.86053 | 38894 ft | 454 kts | 25° |
| 2026-04-20 17:49 | 24.71324 | -17.82372 | 38906 ft | 454 kts | 25° |
| 2026-04-20 17:50 | 24.76686 | -17.78684 | 38909 ft | 454 kts | 25° |
| 2026-04-20 17:50 | 24.82032 | -17.75002 | 38908 ft | 453 kts | 25° |
| 2026-04-20 17:51 | 24.87381 | -17.71314 | 38921 ft | 454 kts | 26° |
| 2026-04-20 17:51 | 24.92734 | -17.67621 | 38909 ft | 454 kts | 26° |
| 2026-04-20 17:52 | 24.98087 | -17.63931 | 38900 ft | 453 kts | 25° |
| 2026-04-20 17:52 | 25.03716 | -17.61324 | 38904 ft | 439 kts | 9° |
| 2026-04-20 17:53 | 25.09617 | -17.59578 | 38898 ft | 439 kts | 8° |
| 2026-04-20 17:53 | 25.15527 | -17.57845 | 38897 ft | 439 kts | 8° |
| 2026-04-20 17:54 | 25.21429 | -17.56072 | 38912 ft | 440 kts | 9° |
| 2026-04-20 17:54 | 25.27348 | -17.54269 | 38902 ft | 441 kts | 9° |
| 2026-04-20 17:55 | 25.33268 | -17.52458 | 38895 ft | 442 kts | 9° |
| 2026-04-20 17:55 | 25.39203 | -17.50640 | 38896 ft | 442 kts | 9° |
| 2026-04-20 17:56 | 25.45134 | -17.48822 | 38896 ft | 442 kts | 9° |
| 2026-04-20 17:56 | 25.51068 | -17.47002 | 38914 ft | 443 kts | 9° |
| 2026-04-20 17:57 | 25.57010 | -17.45179 | 38901 ft | 444 kts | 9° |
| 2026-04-20 17:57 | 25.62969 | -17.43347 | 38898 ft | 444 kts | 9° |
| 2026-04-20 17:58 | 25.68927 | -17.41514 | 38894 ft | 444 kts | 9° |
| 2026-04-20 17:58 | 25.74880 | -17.39681 | 38890 ft | 444 kts | 9° |
| 2026-04-20 17:59 | 25.80789 | -17.37859 | 38917 ft | 444 kts | 9° |
| 2026-04-20 17:59 | 25.86748 | -17.36021 | 38904 ft | 445 kts | 9° |
| 2026-04-20 18:00 | 25.92711 | -17.34179 | 38889 ft | 445 kts | 9° |
| 2026-04-20 18:00 | 25.98678 | -17.32333 | 38886 ft | 445 kts | 9° |
| 2026-04-20 18:01 | 26.04612 | -17.30496 | 38893 ft | 445 kts | 9° |
| 2026-04-20 18:01 | 26.10577 | -17.28648 | 38890 ft | 445 kts | 9° |
| 2026-04-20 18:02 | 26.16542 | -17.26797 | 38893 ft | 445 kts | 9° |
| 2026-04-20 18:02 | 26.22513 | -17.24943 | 38885 ft | 445 kts | 9° |
| 2026-04-20 18:02 | 26.25512 | -17.24012 | 38530 ft | 450 kts | 9° |
| 2026-04-20 18:03 | 26.28515 | -17.23079 | 37917 ft | 447 kts | 9° |
| 2026-04-20 18:03 | 26.31496 | -17.22149 | 37334 ft | 444 kts | 9° |
| 2026-04-20 18:03 | 26.34432 | -17.21234 | 36722 ft | 443 kts | 9° |
| 2026-04-20 18:03 | 26.37436 | -17.20298 | 36088 ft | 442 kts | 9° |
| 2026-04-20 18:04 | 26.40405 | -17.19373 | 35432 ft | 443 kts | 9° |
| 2026-04-20 18:04 | 26.43376 | -17.18448 | 34757 ft | 444 kts | 9° |
| 2026-04-20 18:04 | 26.46368 | -17.17516 | 34009 ft | 448 kts | 9° |
| 2026-04-20 18:04 | 26.49367 | -17.16581 | 33375 ft | 446 kts | 10° |
| 2026-04-20 18:05 | 26.55293 | -17.14726 | 32224 ft | 439 kts | 10° |
| 2026-04-20 18:05 | 26.58222 | -17.13808 | 31692 ft | 435 kts | 10° |
| 2026-04-20 18:05 | 26.61130 | -17.12898 | 31165 ft | 432 kts | 10° |
| 2026-04-20 18:06 | 26.64012 | -17.11996 | 30651 ft | 429 kts | 10° |
| 2026-04-20 18:06 | 26.66872 | -17.11100 | 30140 ft | 426 kts | 10° |
| 2026-04-20 18:06 | 26.69718 | -17.10209 | 29568 ft | 423 kts | 11° |
| 2026-04-20 18:06 | 26.72536 | -17.09326 | 28986 ft | 419 kts | 11° |
| 2026-04-20 18:07 | 26.75333 | -17.08449 | 28455 ft | 414 kts | 11° |
| 2026-04-20 18:07 | 26.78093 | -17.07582 | 27915 ft | 411 kts | 11° |
| 2026-04-20 18:07 | 26.80838 | -17.06721 | 27383 ft | 407 kts | 11° |
| 2026-04-20 18:07 | 26.83552 | -17.05869 | 26853 ft | 404 kts | 11° |
| 2026-04-20 18:08 | 26.86241 | -17.05024 | 26356 ft | 400 kts | 11° |
| 2026-04-20 18:08 | 26.88915 | -17.04184 | 25830 ft | 397 kts | 11° |
| 2026-04-20 18:08 | 26.91555 | -17.03277 | 25336 ft | 396 kts | 14° |
| 2026-04-20 18:08 | 26.94119 | -17.02274 | 24837 ft | 394 kts | 15° |
| 2026-04-20 18:09 | 26.96723 | -17.01207 | 24346 ft | 392 kts | 16° |
| 2026-04-20 18:09 | 26.99272 | -17.00152 | 23831 ft | 391 kts | 16° |
| 2026-04-20 18:09 | 27.01643 | -16.99177 | 23348 ft | 390 kts | 16° |
| 2026-04-20 18:09 | 27.04191 | -16.98137 | 22763 ft | 388 kts | 15° |
| 2026-04-20 18:10 | 27.06717 | -16.97112 | 22221 ft | 385 kts | 15° |
| 2026-04-20 18:10 | 27.09234 | -16.96096 | 21702 ft | 383 kts | 15° |
| 2026-04-20 18:10 | 27.11728 | -16.95091 | 21214 ft | 380 kts | 16° |
| 2026-04-20 18:10 | 27.14208 | -16.94094 | 20712 ft | 377 kts | 16° |
| 2026-04-20 18:11 | 27.16663 | -16.93107 | 20226 ft | 374 kts | 16° |
| 2026-04-20 18:11 | 27.19109 | -16.92123 | 19736 ft | 372 kts | 16° |
| 2026-04-20 18:11 | 27.21545 | -16.91144 | 19260 ft | 370 kts | 16° |
| 2026-04-20 18:11 | 27.23957 | -16.90173 | 18768 ft | 368 kts | 16° |
| 2026-04-20 18:12 | 27.26375 | -16.89200 | 18260 ft | 367 kts | 16° |
| 2026-04-20 18:12 | 27.28776 | -16.88233 | 17715 ft | 366 kts | 17° |
| 2026-04-20 18:12 | 27.31172 | -16.87267 | 17203 ft | 364 kts | 17° |
| 2026-04-20 18:12 | 27.33549 | -16.86308 | 16718 ft | 361 kts | 17° |
| 2026-04-20 18:13 | 27.35874 | -16.85370 | 16232 ft | 359 kts | 17° |
| 2026-04-20 18:13 | 27.38215 | -16.84425 | 15751 ft | 356 kts | 17° |
| 2026-04-20 18:13 | 27.40545 | -16.83484 | 15260 ft | 354 kts | 17° |
| 2026-04-20 18:13 | 27.42857 | -16.82549 | 14798 ft | 352 kts | 17° |
| 2026-04-20 18:14 | 27.45152 | -16.81622 | 14305 ft | 351 kts | 17° |
| 2026-04-20 18:14 | 27.47449 | -16.80693 | 13816 ft | 350 kts | 17° |
| 2026-04-20 18:14 | 27.49740 | -16.79767 | 13290 ft | 349 kts | 17° |
| 2026-04-20 18:14 | 27.52018 | -16.78845 | 12777 ft | 346 kts | 17° |
| 2026-04-20 18:15 | 27.54275 | -16.77930 | 12292 ft | 344 kts | 17° |
| 2026-04-20 18:15 | 27.56523 | -16.77019 | 11753 ft | 343 kts | 17° |
| 2026-04-20 18:15 | 27.58765 | -16.76111 | 11251 ft | 341 kts | 17° |
| 2026-04-20 18:15 | 27.60990 | -16.75208 | 10782 ft | 339 kts | 17° |
| 2026-04-20 18:16 | 27.63204 | -16.74310 | 10307 ft | 337 kts | 17° |
| 2026-04-20 18:16 | 27.65382 | -16.73425 | 10086 ft | 327 kts | 17° |
| 2026-04-20 18:16 | 27.67485 | -16.72571 | 9915 ft | 315 kts | 17° |
| 2026-04-20 18:16 | 27.69521 | -16.71743 | 9702 ft | 307 kts | 17° |
| 2026-04-20 18:17 | 27.71498 | -16.70972 | 9585 ft | 294 kts | 11° |
| 2026-04-20 18:17 | 27.73449 | -16.70926 | 9455 ft | 273 kts | 342° |
| 2026-04-20 18:17 | 27.75175 | -16.71711 | 9143 ft | 263 kts | 322° |
| 2026-04-20 18:17 | 27.76568 | -16.72995 | 8866 ft | 256 kts | 313° |
| 2026-04-20 18:18 | 27.77859 | -16.74368 | 8577 ft | 254 kts | 311° |
| 2026-04-20 18:18 | 27.79132 | -16.75730 | 8296 ft | 251 kts | 312° |
| 2026-04-20 18:18 | 27.80403 | -16.77081 | 8025 ft | 250 kts | 313° |
| 2026-04-20 18:18 | 27.81667 | -16.78415 | 7745 ft | 248 kts | 312° |
| 2026-04-20 18:19 | 27.82908 | -16.79724 | 7465 ft | 246 kts | 312° |
| 2026-04-20 18:19 | 27.84171 | -16.81058 | 7182 ft | 244 kts | 312° |
| 2026-04-20 18:19 | 27.85059 | -16.82639 | 6891 ft | 238 kts | 283° |
| 2026-04-20 18:19 | 27.85172 | -16.84456 | 6791 ft | 232 kts | 262° |
| 2026-04-20 18:20 | 27.84911 | -16.85618 | 6709 ft | 230 kts | 251° |
| 2026-04-20 18:20 | 27.84097 | -16.87825 | 6566 ft | 231 kts | 248° |
| 2026-04-20 18:20 | 27.83450 | -16.89499 | 6452 ft | 234 kts | 248° |
| 2026-04-20 18:20 | 27.82801 | -16.91192 | 6351 ft | 236 kts | 248° |
| 2026-04-20 18:21 | 27.82146 | -16.92907 | 6236 ft | 239 kts | 248° |
| 2026-04-20 18:21 | 27.81489 | -16.94636 | 6115 ft | 240 kts | 248° |
| 2026-04-20 18:21 | 27.81056 | -16.95781 | 6040 ft | 237 kts | 247° |
| 2026-04-20 18:21 | 27.80412 | -16.97487 | 5919 ft | 234 kts | 248° |
| 2026-04-20 18:22 | 27.79775 | -16.99173 | 5810 ft | 233 kts | 249° |
| 2026-04-20 18:22 | 27.79142 | -17.00852 | 5696 ft | 231 kts | 248° |
| 2026-04-20 18:22 | 27.78513 | -17.02521 | 5601 ft | 230 kts | 249° |
| 2026-04-20 18:22 | 27.77880 | -17.04198 | 5490 ft | 234 kts | 248° |
| 2026-04-20 18:23 | 27.77249 | -17.05909 | 5375 ft | 237 kts | 254° |
| 2026-04-20 18:23 | 27.77157 | -17.07705 | 5261 ft | 227 kts | 286° |
| 2026-04-20 18:23 | 27.77884 | -17.09235 | 5169 ft | 221 kts | 311° |
| 2026-04-20 18:23 | 27.79098 | -17.10287 | 5058 ft | 224 kts | 332° |
| 2026-04-20 18:24 | 27.80552 | -17.11005 | 4962 ft | 229 kts | 336° |
| 2026-04-20 18:24 | 27.82085 | -17.11514 | 4829 ft | 234 kts | 356° |
| 2026-04-20 18:24 | 27.83659 | -17.11080 | 4726 ft | 238 kts | 26° |
| 2026-04-20 18:24 | 27.84849 | -17.09790 | 4600 ft | 242 kts | 56° |
| 2026-04-20 18:25 | 27.85576 | -17.08070 | 4500 ft | 245 kts | 65° |
| 2026-04-20 18:25 | 27.86232 | -17.06279 | 4388 ft | 248 kts | 63° |
| 2026-04-20 18:25 | 27.86894 | -17.04484 | 4282 ft | 248 kts | 65° |
| 2026-04-20 18:25 | 27.87555 | -17.02689 | 4157 ft | 246 kts | 65° |
| 2026-04-20 18:26 | 27.88216 | -17.00908 | 4025 ft | 246 kts | 63° |
| 2026-04-20 18:26 | 27.88887 | -16.99124 | 3929 ft | 245 kts | 65° |
| 2026-04-20 18:26 | 27.89543 | -16.97377 | 3807 ft | 239 kts | 65° |
| 2026-04-20 18:26 | 27.90186 | -16.95659 | 3694 ft | 237 kts | 64° |
| 2026-04-20 18:27 | 27.90828 | -16.93946 | 3581 ft | 237 kts | 65° |
| 2026-04-20 18:27 | 27.91468 | -16.92247 | 3475 ft | 237 kts | 64° |
| 2026-04-20 18:27 | 27.92110 | -16.90533 | 3361 ft | 237 kts | 64° |
| 2026-04-20 18:27 | 27.92752 | -16.88821 | 3252 ft | 236 kts | 63° |
| 2026-04-20 18:28 | 27.93402 | -16.87088 | 3125 ft | 233 kts | 65° |
| 2026-04-20 18:28 | 27.94035 | -16.85458 | 3004 ft | 226 kts | 62° |
| 2026-04-20 18:28 | 27.94688 | -16.83875 | 2890 ft | 218 kts | 62° |
| 2026-04-20 18:28 | 27.95319 | -16.82347 | 2785 ft | 211 kts | 63° |
| 2026-04-20 18:29 | 27.95929 | -16.80864 | 2704 ft | 205 kts | 63° |
| 2026-04-20 18:29 | 27.96519 | -16.79425 | 2599 ft | 199 kts | 62° |
| 2026-04-20 18:29 | 27.97095 | -16.78020 | 2501 ft | 194 kts | 61° |
| 2026-04-20 18:29 | 27.97658 | -16.76646 | 2413 ft | 191 kts | 61° |
| 2026-04-20 18:30 | 27.98179 | -16.75274 | 2411 ft | 188 kts | 65° |
| 2026-04-20 18:30 | 27.98659 | -16.73931 | 2367 ft | 178 kts | 63° |
| 2026-04-20 18:30 | 27.99103 | -16.72669 | 2300 ft | 167 kts | 65° |
| 2026-04-20 18:30 | 27.99517 | -16.71477 | 2184 ft | 159 kts | 64° |
| 2026-04-20 18:31 | 27.99917 | -16.70329 | 2128 ft | 157 kts | 64° |
| 2026-04-20 18:31 | 28.00303 | -16.69225 | 2095 ft | 146 kts | 67° |
| 2026-04-20 18:31 | 28.00661 | -16.68180 | 1958 ft | 144 kts | 67° |
| 2026-04-20 18:31 | 28.01032 | -16.67107 | 1759 ft | 147 kts | 68° |
| 2026-04-20 18:32 | 28.01404 | -16.66032 | 1559 ft | 146 kts | 68° |
| 2026-04-20 18:32 | 28.01775 | -16.64963 | 1361 ft | 146 kts | 68° |
| 2026-04-20 18:32 | 28.02144 | -16.63898 | 1173 ft | 146 kts | 68° |
| 2026-04-20 18:32 | 28.02513 | -16.62836 | 984 ft | 143 kts | 69° |
| 2026-04-20 18:33 | 28.02863 | -16.61824 | 803 ft | 138 kts | 70° |
| 2026-04-20 18:33 | 28.03221 | -16.60814 | 621 ft | 139 kts | 71° |
| 2026-04-20 18:33 | 28.03569 | -16.59788 | 431 ft | 140 kts | 71° |
| 2026-04-20 18:33 | 28.03916 | -16.58773 | 237 ft | 136 kts | 70° |
| 2026-04-20 18:34 | 28.04237 | -16.57845 | 195 ft | 94 kts | 67° |
| 2026-04-20 18:34 | 28.04425 | -16.57319 | 198 ft | 53 kts | 68° |
| 2026-04-20 18:34 | 28.04508 | -16.57097 | 207 ft | 16 kts | 62° |
| 2026-04-20 18:34 | 28.04569 | -16.56991 | 202 ft | 16 kts | 54° |
| 2026-04-20 18:35 | 28.04641 | -16.56898 | 205 ft | 15 kts | 47° |
| 2026-04-20 18:35 | 28.04711 | -16.56812 | 214 ft | 15 kts | 37° |
| 2026-04-20 18:35 | 28.04774 | -16.56858 | 218 ft | 14 kts | 261° |
| 2026-04-20 18:35 | 28.04741 | -16.56963 | 220 ft | 14 kts | 248° |
| 2026-04-20 18:36 | 28.04705 | -16.57061 | 223 ft | 13 kts | 248° |
| 2026-04-20 18:36 | 28.04665 | -16.57157 | 222 ft | 14 kts | 239° |
| 2026-04-20 18:36 | 28.04625 | -16.57263 | 222 ft | 15 kts | 249° |
| 2026-04-20 18:36 | 28.04584 | -16.57381 | 222 ft | 17 kts | 249° |
| 2026-04-20 18:37 | 28.04615 | -16.57463 | 222 ft | 14 kts | 340° |
| 2026-04-20 18:37 | 28.04680 | -16.57518 | 224 ft | 9 kts | 272° |
| 2026-04-20 18:37 | 28.04657 | -16.57579 | 224 ft | 5 kts | 253° |
| 2026-04-20 18:37 | 28.04673 | -16.57607 | 225 ft | 5 kts | 343° |
| 2026-04-20 18:38 | 28.04705 | -16.57619 | 225 ft | 5 kts | 339° |
| 2026-04-20 18:38 | 28.04732 | -16.57630 | 226 ft | 0 kts | 339° |